Latest Weather Observations for Mallacoota

IDV60801

Issued at 10:02 pm EDT Saturday 25 February 2017 (issued every 30 minutes, with the page automatically refreshed every 10 minutes)

About weather observations | Map of weather stations | Latest weather observations for VIC | Other Formats
Station Details ID: 084084 Name: MALLACOOTA Lat: -37.60 Lon: 149.73 Height: 22.0 m
Data from the previous 72 hours. | See also: Recent months at Mallacoota
Date/Time
EDT
Temp
°C
App
Temp
°C
Dew
Point
°C
Rel
Hum
%
Delta-T
°C
Wind Press
QNH
hPa
Press
MSL
hPa
Rain since
9am
mm
Dir  Spd
km/h
Gust
km/h
Spd
kts
Gust
kts
25/10:00pm 18.2 14.7 10.3 60 4.2 ESE 19 28 10 15 1025.1 1025.1 0.6
25/09:30pm 18.2 14.5 10.1 59 4.3 E 20 30 11 16 1025.0 1025.0 0.6
25/09:00pm 18.3 15.1 11.4 64 3.7 ESE 19 28 10 15 1024.6 1024.6 0.6
25/08:30pm 18.2 14.8 11.3 64 3.8 ESE 20 32 11 17 1024.5 1024.5 0.6
25/08:00pm 18.3 15.1 11.8 66 3.6 E 20 32 11 17 1024.2 1024.2 0.6
25/07:30pm 18.4 15.1 11.7 65 3.7 ESE 20 33 11 18 1023.9 1023.9 0.6
25/07:00pm 18.3 14.2 11.6 65 3.7 E 24 33 13 18 1023.6 1023.6 0.6
25/06:30pm 18.6 14.8 12.4 67 3.5 E 24 32 13 17 1023.2 1023.2 0.6
25/06:00pm 18.5 15.0 12.3 67 3.4 E 22 32 12 17 1023.0 1023.0 0.6
25/05:30pm 18.2 15.4 12.6 70 3.1 E 19 26 10 14 1023.0 1023.0 0.6
25/05:00pm 17.6 15.6 13.9 79 2.1 E 17 24 9 13 1023.1 1023.1 0.4
25/04:30pm 17.2 16.2 14.7 85 1.4 E 13 22 7 12 1023.2 1023.2 0.4
25/04:00pm 17.4 17.5 15.4 88 1.2 ESE 9 13 5 7 1023.3 1023.3 0.4
25/03:30pm 17.0 17.2 14.8 87 1.3 ESE 7 11 4 6 1023.5 1023.5 0.4
25/03:00pm 17.8 17.5 14.3 80 2.0 SE 9 13 5 7 1023.5 1023.5 0.0
25/02:30pm 17.6 17.6 14.1 80 2.0 SSE 7 13 4 7 1023.6 1023.6 0.0
25/02:00pm 17.5 18.0 15.1 86 1.4 WSW 6 9 3 5 1023.9 1023.9 0.0
25/01:30pm 16.9 16.4 14.9 88 1.2 S 11 17 6 9 1024.1 1024.1 0.0
25/01:00pm 17.0 17.0 15.2 89 1.0 SSE 9 15 5 8 1024.2 1024.2 0.0
25/12:30pm 17.3 17.6 14.9 86 1.4 S 7 9 4 5 1024.4 1024.4 0.0
25/12:00pm 17.7 15.9 13.2 75 2.5 SSW 15 20 8 11 1024.3 1024.3 0.0
25/11:30am 18.4 17.6 12.8 70 3.1 SSW 9 13 5 7 1024.2 1024.2 0.0
25/11:00am 18.4 16.7 12.4 68 3.3 S 13 20 7 11 1024.2 1024.2 0.0
25/10:30am 17.6 16.6 12.3 71 2.9 W 9 17 5 9 1024.2 1024.2 0.0
25/10:00am 16.3 15.5 12.8 80 1.9 WNW 9 15 5 8 1024.2 1024.2 0.0
25/09:30am 16.5 15.4 11.9 74 2.5 WSW 9 17 5 9 1024.0 1024.0 0.0
25/09:00am 16.3 14.8 11.9 75 2.4 W 11 17 6 9 1023.6 1023.6 0.0
25/08:30am 15.8 14.2 11.6 76 2.3 W 11 15 6 8 1023.4 1023.4 0.0
25/08:00am 15.3 14.1 11.5 78 2.0 W 9 13 5 7 1023.3 1023.3 0.0
25/07:30am 14.7 13.4 11.3 80 1.8 WNW 9 13 5 7 1023.0 1023.0 0.0
25/07:00am 14.2 12.8 11.0 81 1.7 W 9 17 5 9 1023.0 1023.0 0.0
25/06:30am 14.2 12.8 11.0 81 1.7 W 9 13 5 7 1022.8 1022.8 0.0
25/06:00am 14.7 12.9 10.9 78 2.0 WNW 11 17 6 9 1022.7 1022.7 0.0
25/05:30am 14.6 13.6 11.0 79 1.9 W 7 11 4 6 1022.5 1022.5 0.0
25/05:00am 14.6 12.8 10.8 78 2.0 W 11 17 6 9 1022.3 1022.3 0.0
25/04:30am 14.6 12.8 10.8 78 2.0 W 11 17 6 9 1022.2 1022.2 0.0
25/04:00am 14.9 12.7 10.9 77 2.1 WNW 13 20 7 11 1022.1 1022.1 0.0
25/03:30am 15.4 13.2 10.8 74 2.4 W 13 19 7 10 1022.3 1022.3 0.0
25/03:00am 15.8 14.4 11.0 73 2.6 W 9 13 5 7 1022.5 1022.5 0.0
25/02:30am 15.9 14.6 11.1 73 2.6 W 9 15 5 8 1022.8 1022.8 0.0
25/02:00am 15.9 14.6 11.1 73 2.6 W 9 15 5 8 1022.8 1022.8 0.0
25/01:30am 15.9 14.6 11.1 73 2.6 WNW 9 13 5 7 1023.0 1023.0 0.0
25/01:00am 16.0 14.6 11.0 72 2.7 W 9 13 5 7 1023.2 1023.2 0.0
25/12:30am 16.1 14.8 11.1 72 2.7 WNW 9 13 5 7 1023.4 1023.4 0.0
25/12:00am 16.2 14.8 10.9 71 2.8 WNW 9 15 5 8 1023.5 1023.5 0.0
 
Date/Time
EDT
Temp
°C
App
Temp
°C
Dew
Point
°C
Rel
Hum
%
Delta-T
°C
Wind Press
QNH
hPa
Press
MSL
hPa
Rain since
9am
mm
Dir  Spd
km/h
Gust
km/h
Spd
kts
Gust
kts
24/11:30pm 16.2 15.1 10.7 70 2.9 NW 7 11 4 6 1023.7 1023.7 0.0
24/11:00pm 16.6 15.5 10.5 67 3.2 W 7 11 4 6 1023.9 1023.9 0.0
24/10:30pm 16.6 15.5 10.5 67 3.2 WSW 7 11 4 6 1024.1 1024.1 0.0
24/10:00pm 16.7 14.8 10.5 67 3.3 WSW 11 17 6 9 1024.0 1024.0 0.0
24/09:30pm 16.9 15.4 10.7 67 3.3 WSW 9 17 5 9 1024.0 1024.0 0.0
24/09:00pm 17.0 15.7 11.1 68 3.2 SW 9 17 5 9 1023.8 1023.8 0.0
24/08:30pm 17.1 15.8 11.2 68 3.2 WSW 9 13 5 7 1023.6 1023.6 0.0
24/08:00pm 17.1 15.7 10.9 67 3.3 WSW 9 15 5 8 1023.3 1023.3 0.0
24/07:30pm 17.3 15.2 11.1 67 3.3 SW 13 24 7 13 1023.1 1023.1 0.0
24/07:00pm 17.5 15.4 11.1 66 3.4 SW 13 22 7 12 1023.0 1023.0 0.0
24/06:30pm 17.8 15.3 10.9 64 3.7 SW 15 24 8 13 1022.7 1022.7 0.0
24/06:00pm 17.8 14.5 10.9 64 3.7 SW 19 28 10 15 1022.4 1022.4 0.0
24/05:30pm 17.7 14.3 11.3 66 3.5 SSW 20 39 11 21 1022.2 1022.2 0.0
24/05:00pm 18.0 14.8 12.0 68 3.3 SSW 20 35 11 19 1022.0 1022.0 0.0
24/04:30pm 18.3 14.9 12.5 69 3.2 SSW 22 39 12 21 1021.8 1021.8 0.0
24/04:00pm 18.8 15.9 13.0 69 3.3 SSW 20 39 11 21 1021.6 1021.6 0.0
24/03:30pm 18.8 15.4 12.5 67 3.5 SSW 22 32 12 17 1021.6 1021.6 0.0
24/03:00pm 19.3 16.8 13.5 69 3.3 SSW 19 37 10 20 1021.7 1021.7 0.0
24/02:30pm 18.5 16.0 14.2 76 2.5 SSW 20 33 11 18 1022.0 1022.0 0.0
24/02:00pm 18.6 17.1 14.3 76 2.5 SW 15 26 8 14 1022.0 1022.0 0.0
24/01:30pm 18.7 16.3 14.4 76 2.5 SSW 20 33 11 18 1022.0 1022.0 0.0
24/01:00pm 20.1 18.8 14.7 71 3.1 SSW 15 24 8 13 1021.9 1021.9 0.0
24/12:30pm 19.1 16.9 14.4 74 2.7 SSW 19 32 10 17 1022.1 1022.1 0.0
24/12:00pm 18.8 17.2 14.9 78 2.3 SW 17 22 9 12 1022.3 1022.3 0.0
24/11:30am 19.7 18.4 14.9 74 2.8 SSW 15 26 8 14 1022.3 1022.3 0.0
24/11:00am 19.5 18.8 15.4 77 2.4 SW 13 20 7 11 1022.4 1022.4 0.0
24/10:30am 18.3 17.5 15.2 82 1.8 SW 13 22 7 12 1022.6 1022.6 0.0
24/10:00am 18.6 18.9 15.1 80 2.0 SW 7 11 4 6 1022.6 1022.6 0.0
24/09:30am 18.5 18.9 15.4 82 1.8 SW 7 13 4 7 1022.5 1022.5 0.0
24/09:00am 18.5 18.9 15.2 81 1.9 W 7 15 4 8 1022.4 1022.4 0.0
24/08:30am 17.9 17.8 15.0 83 1.7 WNW 9 15 5 8 1022.3 1022.3 0.0
24/08:00am 17.6 17.4 14.7 83 1.7 W 9 11 5 6 1021.9 1021.9 0.0
24/07:30am 17.3 17.1 14.6 84 1.6 WNW 9 11 5 6 1021.8 1021.8 0.0
24/07:00am 17.0 16.7 14.5 85 1.4 WNW 9 11 5 6 1021.7 1021.7 0.0
24/06:30am 16.9 16.6 14.4 85 1.4 WNW 9 13 5 7 1021.5 1021.5 0.0
24/06:00am 16.8 16.5 14.3 85 1.4 WNW 9 13 5 7 1021.3 1021.3 0.0
24/05:30am 16.7 16.4 14.3 86 1.4 WNW 9 11 5 6 1021.1 1021.1 0.0
24/05:00am 16.4 16.0 14.2 87 1.2 WNW 9 11 5 6 1021.1 1021.1 0.0
24/04:30am 16.2 15.8 14.2 88 1.1 WNW 9 13 5 7 1021.0 1021.0 0.0
24/04:00am 15.9 15.6 14.3 90 0.9 WNW 9 11 5 6 1021.1 1021.1 0.0
24/03:30am 15.5 15.1 14.0 91 0.8 WNW 9 11 5 6 1021.0 1021.0 0.0
24/03:00am 15.3 14.8 13.7 90 0.9 WNW 9 13 5 7 1021.0 1021.0 0.0
24/02:30am 15.4 14.9 13.8 90 0.9 WNW 9 13 5 7 1021.1 1021.1 0.0
24/02:00am 15.5 15.0 13.7 89 1.0 WNW 9 11 5 6 1021.1 1021.1 0.0
24/01:30am 15.6 15.1 13.8 89 1.0 WNW 9 11 5 6 1021.2 1021.2 0.0
24/01:00am 15.9 15.4 13.9 88 1.1 WNW 9 11 5 6 1021.2 1021.2 0.0
24/12:30am 16.1 15.6 13.9 87 1.2 WNW 9 11 5 6 1021.2 1021.2 0.0
24/12:00am 16.4 16.0 14.2 87 1.2 WNW 9 11 5 6 1021.3 1021.3 0.0
 
Date/Time
EDT
Temp
°C
App
Temp
°C
Dew
Point
°C
Rel
Hum
%
Delta-T
°C
Wind Press
QNH
hPa
Press
MSL
hPa
Rain since
9am
mm
Dir  Spd
km/h
Gust
km/h
Spd
kts
Gust
kts
23/11:30pm 16.5 16.5 14.2 86 1.3 W 7 9 4 5 1021.2 1021.2 0.0
23/11:00pm 16.8 16.9 14.4 86 1.4 W 7 9 4 5 1021.1 1021.1 0.0
23/10:30pm 16.9 17.2 14.4 85 1.4 W 6 9 3 5 1021.1 1021.1 0.0
23/10:00pm 17.2 17.3 14.5 84 1.5 W 7 9 4 5 1021.1 1021.1 0.0
23/09:30pm 17.6 17.9 14.5 82 1.8 WSW 6 9 3 5 1020.8 1020.8 0.0
23/09:00pm 17.9 18.2 14.4 80 2.0 WSW 6 9 3 5 1020.4 1020.4 0.0
23/08:30pm 18.5 18.7 14.6 78 2.3 WSW 7 9 4 5 1019.9 1019.9 0.0
23/08:00pm 19.1 19.3 14.8 76 2.5 SW 7 11 4 6 1019.6 1019.6 0.0
23/07:30pm 19.9 19.4 14.9 73 2.9 SSW 11 15 6 8 1019.1 1019.1 0.0
23/07:00pm 20.3 19.4 14.9 71 3.2 SSW 13 20 7 11 1018.7 1018.6 0.0
23/06:30pm 20.9 20.0 14.8 68 3.6 S 13 19 7 10 1018.4 1018.3 0.0
23/06:00pm 21.6 20.8 15.0 66 3.9 S 13 20 7 11 1018.3 1018.2 0.0
23/05:30pm 21.9 20.7 15.0 65 4.1 SSW 15 24 8 13 1018.0 1017.9 0.0
23/05:00pm 22.4 20.6 14.5 61 4.6 S 17 24 9 13 1017.7 1017.6 0.0
23/04:30pm 22.9 21.4 15.2 62 4.6 S 17 24 9 13 1017.5 1017.4 0.0
23/04:00pm 22.7 21.5 16.0 66 4.0 S 17 24 9 13 1017.3 1017.2 0.0
23/03:30pm 22.7 21.6 16.3 67 3.9 S 17 24 9 13 1017.3 1017.2 0.0
23/03:00pm 23.3 22.2 16.4 65 4.2 S 17 26 9 14 1017.1 1017.0 0.0
23/02:30pm 23.5 22.5 16.5 65 4.3 S 17 24 9 13 1016.9 1016.8 0.0
23/02:00pm 23.6 21.8 15.6 61 4.8 S 19 30 10 16 1016.8 1016.7 0.0
23/01:30pm 23.1 21.0 15.2 61 4.7 S 20 30 11 16 1016.7 1016.6 0.0
23/01:00pm 23.9 21.8 14.6 56 5.5 S 19 28 10 15 1016.7 1016.6 0.0
23/12:30pm 23.6 21.4 14.9 58 5.2 S 20 32 11 17 1016.6 1016.5 0.0
23/12:00pm 22.4 17.9 14.8 62 4.5 S 32 39 17 21 1016.4 1016.3 0.0
23/11:30am 23.2 20.4 15.3 61 4.7 S 24 35 13 19 1016.2 1016.1 0.0
23/11:00am 23.0 20.5 15.1 61 4.7 S 22 28 12 15 1016.1 1016.0 0.0
23/10:30am 23.8 24.6 17.3 67 4.0 SE 9 15 5 8 1016.2 1016.1 0.0
23/10:00am 23.1 22.3 16.2 65 4.2 S 15 19 8 10 1016.1 1016.0 0.0
23/09:30am 25.2 24.4 14.0 49 6.6 W 11 15 6 8 1015.7 1015.6 0.0
23/09:00am 24.2 24.7 16.5 62 4.7 NW 9 13 5 7 1015.4 1015.3 0.0
23/08:30am 23.3 23.7 16.4 65 4.2 WNW 9 13 5 7 1015.3 1015.2 0.0
23/08:00am 21.8 21.9 16.5 72 3.2 NNW 11 17 6 9 1014.5 1014.4 0.0
23/07:30am 21.2 21.3 16.6 75 2.8 NNW 11 20 6 11 1013.9 1013.8 0.0
23/07:00am 20.6 20.3 16.4 77 2.5 NNW 13 22 7 12 1013.4 1013.3 0.0
23/06:30am 20.6 20.3 16.4 77 2.5 NNW 13 17 7 9 1013.1 1013.0 0.0
23/06:00am 20.9 20.2 16.5 76 2.7 N 15 24 8 13 1012.9 1012.8 0.0
23/05:30am 20.9 19.9 16.7 77 2.5 NNW 17 26 9 14 1012.8 1012.7 0.0
23/05:00am 20.7 20.1 16.7 78 2.4 NNW 15 24 8 13 1012.9 1012.8 0.0
23/04:30am 20.9 20.4 16.9 78 2.4 N 15 20 8 11 1012.9 1012.8 0.0
23/04:00am 21.3 20.4 16.9 76 2.7 N 17 24 9 13 1013.0 1012.9 0.0
23/03:30am 21.2 20.7 17.0 77 2.6 NNW 15 22 8 12 1013.2 1013.1 0.0
23/03:00am 21.4 20.9 17.0 76 2.7 N 15 22 8 12 1013.4 1013.3 0.0
23/02:30am 21.5 21.2 17.3 77 2.6 N 15 20 8 11 1013.6 1013.5 0.0
23/02:00am 21.6 21.0 17.6 78 2.5 N 17 26 9 14 1013.7 1013.6 0.0
23/01:30am 21.8 22.0 17.6 77 2.6 N 13 26 7 14 1014.1 1014.0 0.0
23/01:00am 22.2 21.6 17.6 75 2.8 N 17 22 9 12 1014.2 1014.1 0.0
23/12:30am 22.4 21.9 17.8 75 2.9 N 17 28 9 15 1014.1 1014.0 0.0
23/12:00am 22.5 21.0 17.8 75 2.9 N 22 35 12 19 1014.0 1013.9 0.0
 
Date/Time
EDT
Temp
°C
App
Temp
°C
Dew
Point
°C
Rel
Hum
%
Delta-T
°C
Wind Press
QNH
hPa
Press
MSL
hPa
Rain since
9am
mm
Dir  Spd
km/h
Gust
km/h
Spd
kts
Gust
kts
22/11:30pm 22.6 21.2 17.9 75 2.9 N 22 37 12 20 1014.3 1014.2 0.0
22/11:00pm 22.7 22.3 18.0 75 2.9 N 17 28 9 15 1014.7 1014.6 0.0
22/10:30pm 22.8 22.8 18.1 75 2.9 NNE 15 26 8 14 1014.8 1014.7 0.0

Other Formats:

Comma delimited format used in spreadsheet applications
http://www.bom.gov.au/fwo/IDV60801/IDV60801.94935.axf

JavaScript Object Notation format (JSON) in row-major order
http://www.bom.gov.au/fwo/IDV60801/IDV60801.94935.json